South Ashburnham, Massachusetts
Current Conditions -  °F | °C
As of 12:52 PM on Sunday 25 Jan 2015 (Local Time) from KAFN Reporting Station
Clear Clear  
Wind Chill: 18°   Ceiling: Unl
Heat Index: 29°   Visibility: 10mi
Dew Point:   Wind: 14mph
Humidity: 33%   Direction: 300°WNW
Pressure: 29.61"   Gusts: 25mph
Location:  42.659°N, 71.9245°W
Report Text: KAFN 251752Z AUTO 30012G22KT 290V350 10SM CLR M02/M16 A2961 RMK AO2 SLP043 60000 T10171161 10000 21022 51024
Loading
Personal Weather Stations






























Interactive Weather Map New forecast layout! Learn more

10-Day Weather Forecast

Advertisements
Track Severe Weather on mobile